This is the latest recevied weather packets stored in our database for station/object KE4ODN. If no packets are shown the sender has not sent any weather packets the latest 10 day(s).
| Time | Temp. | Humidity | Pressure | Rain* | Wind** | Luminosity | Snow |
|---|---|---|---|---|---|---|---|
| 1777737604 | 16.11° C | 60% | 1015.9 hPa | 0 mm | - | 438 W/m² | - |
| 1777733284 | 13.89° C | 77% | 1015.3 hPa | 0 mm | - | 265 W/m² | - |
| 1777732564 | 13.89° C | 80% | 1015.1 hPa | 0 mm | - | 181 W/m² | - |
| 1777729444 | 12.22° C | 92% | 1014.8 hPa | 0 mm | - | 199 W/m² | - |
| 1777727044 | 11.67° C | 93% | 1014.3 hPa | 0 mm | - | 58 W/m² | - |
| 1777725364 | 11.11° C | 91% | 1014 hPa | 0 mm | - | 60 W/m² | - |
| 1777724404 | 11.11° C | 94% | 1013.8 hPa | 0 mm | - | 51 W/m² | - |
| 1777722484 | 10.56° C | 93% | 1013.2 hPa | 0 mm | - | 26 W/m² | - |
| 1777720564 | 11.11° C | 93% | 1013.1 hPa | 0 mm | - | 5 W/m² | - |
| 1777718644 | 11.11° C | 94% | 1013.1 hPa | 0 mm | - | 0 W/m² | - |
| 1777718404 | 11.11° C | 94% | 1013.1 hPa | 0 mm | - | 0 W/m² | - |
| 1777717705 | 11.67° C | 94% | 1012.9 hPa | 0 mm | - | 0 W/m² | - |
| 1777715764 | 12.22° C | 93% | 1013.2 hPa | 0 mm | - | 0 W/m² | - |
| 1777715524 | 12.22° C | 93% | 1013.4 hPa | 0.25 mm | - | 0 W/m² | - |
| 1777715284 | 12.22° C | 93% | 1013.3 hPa | 0.25 mm | - | 0 W/m² | - |
| 1777715044 | 12.22° C | 93% | 1013.3 hPa | 0.25 mm | - | 0 W/m² | - |
| 1777714564 | 12.22° C | 93% | 1013.6 hPa | 0.25 mm | - | 0 W/m² | - |
| 1777714324 | 12.22° C | 93% | 1013.6 hPa | 0.25 mm | - | 0 W/m² | - |
| 1777713124 | 12.78° C | 94% | 1013 hPa | 0.25 mm | - | 0 W/m² | - |
| 1777710724 | 12.78° C | 94% | 1013.1 hPa | 0.25 mm | - | 0 W/m² | - |
| 1777704745 | 13.89° C | 95% | 1013.6 hPa | 0 mm | - | 0 W/m² | - |
| 1777704244 | 13.89° C | 95% | 1013.6 hPa | 0 mm | - | 0 W/m² | - |
| 1777702804 | 13.89° C | 95% | 1013.6 hPa | 0 mm | - | 0 W/m² | - |
| 1777702324 | 13.89° C | 95% | 1013.5 hPa | 0 mm | - | 0 W/m² | - |
| 1777701364 | 13.89° C | 95% | 1013.5 hPa | 0 mm | - | 0 W/m² | - |
* Rain latest hour (hover to see other rain measurements)
** Current wind speed in m/s (hover to see current wind gust speed)